Aegean Tiffany — SVAE9 — position and weather

sailwx.info

Track history (hours):
 
Tides and Currents Weather Stations Pressure Air Temp Water Temp Dewpoint Dewpoint Depression Visibility Wind Speed Wind Dir Waves Ship Positions

Aegean Tiffany

Last reported at 2016-Jul-27 01:32 UTC. Time now 2016-Jul-27 01:51 UTC.
Position N 37°55' E 023°03'.

Length 80 m; draft 4.6 m.

Type: Tanker. MMSI: 240870000.

Date/timePositionNaut miles runAvg speedWind from/ knotsBaromVisibWave heightAir tempDewpointWater temp
2016-Jul-27 01:32N 37°55' E 023°03'27 5.4
2016-Jul-26 20:28N 38°09' E 022°33'  
2016-Jul-22 02:13N 38°09' E 022°35'27 7.3
2016-Jul-21 22:33N 37°54' E 023°04'8 7.9
2016-Jul-21 21:33N 37°56' E 023°13'8 7.6
2016-Jul-21 20:33N 37°57' E 023°23'6 6.1
2016-Jul-21 19:34N 38°01' E 023°29'3 2.8
2016-Jul-21 18:33N 38°02' E 023°32'0 0.0
2016-Jul-21 17:33N 38°02' E 023°32'0 0.0
2016-Jul-21 16:33N 38°02' E 023°32'0 0.0
2016-Jul-21 15:34N 38°02' E 023°32'0 0.0
2016-Jul-21 14:33N 38°02' E 023°32'1 1.0
2016-Jul-21 13:33N 38°02' E 023°31'0 0.0
2016-Jul-21 12:34N 38°02' E 023°31'0 0.0
2016-Jul-21 11:33N 38°02' E 023°31'0 0.0
2016-Jul-21 10:33N 38°02' E 023°31'0 0.0
2016-Jul-21 09:34N 38°02' E 023°31'0 0.0
2016-Jul-21 08:34N 38°02' E 023°31'1 1.0
2016-Jul-21 07:33N 38°02' E 023°32'1 0.6
2016-Jul-21 06:34N 38°02' E 023°33'2 2.4
2016-Jul-21 05:33N 38°02' E 023°36'0 0.0
2016-Jul-21 04:33N 38°02' E 023°36'0 0.0
2016-Jul-21 03:34N 38°02' E 023°36'0 0.0
2016-Jul-21 02:33N 38°02' E 023°36'0 0.0
2016-Jul-21 01:33N 38°02' E 023°36'3 2.5
2016-Jul-21 00:33N 38°02' E 023°32'7 6.5
2016-Jul-20 23:33N 37°58' E 023°26'8 8.4
2016-Jul-20 22:33N 37°56' E 023°15'9 8.4
2016-Jul-20 21:32N 37°54' E 023°05'30 7.5
2016-Jul-20 17:33N 38°09' E 022°32'  
Track history (hours):
 
Tides and Currents Weather Stations Pressure Air Temp Water Temp Dewpoint Dewpoint Depression Visibility Wind Speed Wind Dir Waves Ship Positions

Aegean Tiffany

Last reported at 2016-Jul-27 01:32 UTC. Time now 2016-Jul-27 01:51 UTC.
Position N 37°55' E 023°03'.

Length 80 m; draft 4.6 m.

Type: Tanker. MMSI: 240870000.

Date/timePositionNaut miles runAvg speedWind from/ knotsBaromVisibWave heightAir tempDewpointWater temp
2016-Jul-27 01:32N 37°55' E 023°03'27 5.4
2016-Jul-26 20:28N 38°09' E 022°33'  
2016-Jul-22 02:13N 38°09' E 022°35'27 7.3
2016-Jul-21 22:33N 37°54' E 023°04'8 7.9
2016-Jul-21 21:33N 37°56' E 023°13'8 7.6
2016-Jul-21 20:33N 37°57' E 023°23'6 6.1
2016-Jul-21 19:34N 38°01' E 023°29'3 2.8
2016-Jul-21 18:33N 38°02' E 023°32'0 0.0
2016-Jul-21 17:33N 38°02' E 023°32'0 0.0
2016-Jul-21 16:33N 38°02' E 023°32'0 0.0
2016-Jul-21 15:34N 38°02' E 023°32'0 0.0
2016-Jul-21 14:33N 38°02' E 023°32'1 1.0
2016-Jul-21 13:33N 38°02' E 023°31'0 0.0
2016-Jul-21 12:34N 38°02' E 023°31'0 0.0
2016-Jul-21 11:33N 38°02' E 023°31'0 0.0
2016-Jul-21 10:33N 38°02' E 023°31'0 0.0
2016-Jul-21 09:34N 38°02' E 023°31'0 0.0
2016-Jul-21 08:34N 38°02' E 023°31'1 1.0
2016-Jul-21 07:33N 38°02' E 023°32'1 0.6
2016-Jul-21 06:34N 38°02' E 023°33'2 2.4
2016-Jul-21 05:33N 38°02' E 023°36'0 0.0
2016-Jul-21 04:33N 38°02' E 023°36'0 0.0
2016-Jul-21 03:34N 38°02' E 023°36'0 0.0
2016-Jul-21 02:33N 38°02' E 023°36'0 0.0
2016-Jul-21 01:33N 38°02' E 023°36'3 2.5
2016-Jul-21 00:33N 38°02' E 023°32'7 6.5
2016-Jul-20 23:33N 37°58' E 023°26'8 8.4
2016-Jul-20 22:33N 37°56' E 023°15'9 8.4
2016-Jul-20 21:32N 37°54' E 023°05'30 7.5
2016-Jul-20 17:33N 38°09' E 022°32'  

Dump ship's entire track history